createdAt,value
2022-12-28T00:02:16.309Z,26.10
2022-12-28T00:04:43.471Z,30.05
2022-12-28T00:07:10.604Z,26.00
2022-12-28T00:09:37.748Z,24.30
2022-12-28T00:12:04.923Z,23.83
2022-12-28T00:14:31.932Z,24.58
2022-12-28T00:16:59.057Z,23.02
2022-12-28T00:19:26.076Z,27.77
2022-12-28T00:21:53.947Z,20.52
2022-12-28T00:24:21.837Z,26.60
2022-12-28T00:26:48.925Z,26.58
2022-12-28T00:29:16.009Z,23.10
2022-12-28T00:31:43.198Z,30.60
2022-12-28T00:34:10.286Z,27.17
2022-12-28T00:37:10.973Z,22.90
2022-12-28T00:39:24.397Z,27.50
2022-12-28T00:41:51.494Z,26.23
2022-12-28T00:44:18.559Z,22.48
2022-12-28T00:46:45.860Z,27.02
2022-12-28T00:49:12.883Z,26.70
2022-12-28T00:51:40.055Z,25.25
2022-12-28T00:54:07.125Z,27.80
2022-12-28T00:56:34.258Z,25.35
2022-12-28T00:59:01.410Z,31.20
2022-12-28T01:01:28.709Z,20.45
2022-12-28T01:03:56.941Z,26.40
2022-12-28T01:06:24.066Z,21.15
2022-12-28T01:08:51.211Z,19.75
2022-12-28T01:11:22.126Z,28.92
2022-12-28T01:13:49.348Z,20.50
2022-12-28T01:16:16.431Z,19.95
2022-12-28T01:18:43.715Z,20.88
2022-12-28T01:21:14.629Z,23.05
2022-12-28T01:23:41.730Z,22.45
2022-12-28T01:26:08.895Z,18.17
2022-12-28T01:28:35.976Z,19.05
2022-12-28T01:31:29.500Z,18.58
2022-12-28T01:33:56.693Z,18.98
2022-12-28T01:36:24.550Z,18.90
2022-12-28T01:38:55.581Z,21.75
2022-12-28T01:41:22.634Z,16.85
2022-12-28T01:43:52.474Z,19.35
2022-12-28T01:46:20.363Z,17.45
2022-12-28T01:48:50.421Z,16.98
2022-12-28T01:51:18.104Z,16.00
2022-12-28T01:53:45.114Z,20.38
2022-12-28T01:56:12.171Z,21.33
2022-12-28T01:58:39.291Z,19.85
2022-12-28T02:01:06.404Z,18.25
2022-12-28T02:03:33.816Z,17.02
2022-12-28T02:06:01.273Z,19.33
2022-12-28T02:08:28.354Z,17.50
2022-12-28T02:10:55.438Z,22.73
2022-12-28T02:13:22.942Z,16.00
2022-12-28T02:15:50.104Z,19.83
2022-12-28T02:18:17.588Z,17.45
2022-12-28T02:20:44.679Z,19.05
2022-12-28T02:23:21.452Z,21.50
2022-12-28T02:25:57.558Z,21.45
2022-12-28T02:28:56.842Z,21.23
2022-12-28T02:31:36.153Z,20.55
2022-12-28T02:34:38.934Z,19.63
2022-12-28T02:37:07.910Z,21.50
2022-12-28T02:39:37.591Z,23.48
2022-12-28T02:42:05.237Z,20.13
2022-12-28T02:44:50.920Z,22.67
2022-12-28T02:47:36.807Z,24.00
2022-12-28T02:50:07.305Z,23.95
2022-12-28T02:55:22.866Z,25.00
2022-12-28T02:58:03.428Z,22.50
2022-12-28T03:03:15.987Z,21.10
2022-12-28T03:06:01.542Z,21.40
2022-12-28T03:08:31.751Z,19.92
2022-12-28T03:11:04.475Z,22.92
2022-12-28T03:13:45.162Z,25.85
2022-12-28T03:16:14.004Z,22.45
2022-12-28T03:18:59.835Z,20.23
2022-12-28T03:21:46.062Z,21.67
2022-12-28T03:24:31.840Z,25.33
2022-12-28T03:27:17.498Z,20.38
2022-12-28T03:30:18.359Z,21.45
2022-12-28T03:32:45.624Z,18.65
2022-12-28T03:35:12.728Z,20.38
2022-12-28T03:37:42.821Z,21.02
2022-12-28T03:40:11.836Z,20.90
2022-12-28T03:42:58.307Z,19.58
2022-12-28T03:45:45.882Z,17.27
2022-12-28T03:48:13.845Z,19.05
2022-12-28T03:50:41.558Z,19.23
2022-12-28T03:53:08.975Z,20.30
2022-12-28T03:55:37.871Z,21.27
2022-12-28T03:58:05.517Z,21.02
2022-12-28T04:00:32.737Z,21.50
2022-12-28T04:02:59.869Z,20.23
2022-12-28T04:05:27.079Z,22.80
2022-12-28T04:07:54.225Z,20.70
2022-12-28T04:10:21.240Z,20.35
2022-12-28T04:12:48.287Z,21.55
2022-12-28T04:15:15.333Z,20.17
2022-12-28T04:17:42.370Z,23.15
2022-12-28T04:20:09.728Z,24.27
2022-12-28T04:22:36.744Z,19.63
2022-12-28T04:25:06.049Z,17.77
2022-12-28T04:27:33.180Z,21.85
2022-12-28T04:30:00.220Z,19.85
2022-12-28T04:32:27.259Z,23.05
2022-12-28T04:34:54.296Z,23.33
2022-12-28T04:37:21.332Z,22.65
2022-12-28T04:39:55.534Z,22.73
2022-12-28T04:42:23.612Z,26.70
2022-12-28T04:44:50.649Z,27.10
2022-12-28T04:47:17.696Z,21.92
2022-12-28T04:49:44.764Z,25.10
2022-12-28T04:52:11.812Z,22.35
2022-12-28T04:54:38.864Z,23.38
2022-12-28T04:57:06.682Z,23.23
2022-12-28T04:59:33.745Z,20.80
2022-12-28T05:02:01.016Z,25.15
2022-12-28T05:04:28.192Z,23.42
2022-12-28T05:06:55.240Z,20.30
2022-12-28T05:09:22.333Z,22.33
2022-12-28T05:11:49.386Z,19.80
2022-12-28T05:14:16.389Z,20.50
2022-12-28T05:16:43.604Z,20.63
2022-12-28T05:19:10.713Z,18.67
2022-12-28T05:21:37.744Z,23.30
2022-12-28T05:24:04.856Z,19.73
2022-12-28T05:26:31.961Z,21.13
2022-12-28T05:28:59.193Z,26.10
2022-12-28T05:31:26.472Z,20.13
2022-12-28T05:33:53.769Z,20.77
2022-12-28T05:36:21.968Z,17.95
2022-12-28T05:38:48.990Z,20.27
2022-12-28T05:41:16.983Z,20.67
2022-12-28T05:43:44.118Z,18.02
2022-12-28T05:46:12.978Z,17.98
2022-12-28T05:48:40.610Z,23.52
2022-12-28T05:51:08.806Z,22.02
2022-12-28T05:53:36.035Z,22.05
2022-12-28T05:56:14.461Z,20.75
2022-12-28T05:58:42.213Z,18.45
2022-12-28T06:01:10.543Z,22.23
2022-12-28T06:03:37.733Z,20.45
2022-12-28T06:06:05.697Z,22.58
2022-12-28T06:08:32.722Z,25.08
2022-12-28T06:11:01.055Z,20.38
2022-12-28T06:13:28.168Z,21.73
2022-12-28T06:15:55.274Z,19.90
2022-12-28T06:18:22.341Z,19.85
2022-12-28T06:20:53.803Z,20.85
2022-12-28T06:23:24.035Z,19.60
2022-12-28T06:25:51.030Z,20.05
2022-12-28T06:28:18.053Z,16.70
2022-12-28T06:30:50.495Z,20.20
2022-12-28T06:33:19.524Z,20.73
2022-12-28T06:35:46.569Z,22.00
2022-12-28T06:38:13.659Z,24.17
2022-12-28T06:41:11.716Z,19.45
2022-12-28T06:43:27.703Z,20.58
2022-12-28T06:45:55.845Z,22.27
2022-12-28T06:48:22.915Z,24.38
2022-12-28T06:50:56.784Z,23.27
2022-12-28T06:53:24.478Z,23.55
2022-12-28T06:55:58.065Z,21.00
2022-12-28T06:58:25.597Z,25.65
2022-12-28T07:00:52.707Z,24.60
2022-12-28T07:03:19.826Z,21.63
2022-12-28T07:05:46.921Z,23.42
2022-12-28T07:08:14.065Z,20.63
2022-12-28T07:10:41.249Z,18.90
2022-12-28T07:13:08.381Z,21.58
2022-12-28T07:15:35.770Z,19.77
2022-12-28T07:18:02.791Z,20.67
2022-12-28T07:20:31.256Z,18.90
2022-12-28T07:23:00.052Z,20.75
2022-12-28T07:25:27.139Z,18.27
2022-12-28T07:27:54.192Z,19.77
2022-12-28T07:30:21.294Z,18.30
2022-12-28T07:32:48.313Z,16.48
2022-12-28T07:35:15.489Z,18.40
2022-12-28T07:37:42.632Z,14.93
2022-12-28T07:40:10.121Z,16.35
2022-12-28T07:42:37.139Z,16.17
2022-12-28T07:45:04.242Z,15.48
2022-12-28T07:47:31.346Z,13.20
2022-12-28T07:49:58.373Z,14.38
2022-12-28T07:52:25.459Z,13.48
2022-12-28T07:54:52.553Z,15.20
2022-12-28T07:57:20.681Z,12.95
2022-12-28T07:59:47.691Z,11.57
2022-12-28T08:02:14.921Z,16.35
2022-12-28T08:04:43.422Z,11.93
2022-12-28T08:07:12.144Z,14.48
2022-12-28T08:09:39.184Z,14.82
2022-12-28T08:12:06.349Z,11.10
2022-12-28T08:14:33.454Z,13.13
2022-12-28T08:17:00.502Z,15.40
2022-12-28T08:19:27.548Z,12.88
2022-12-28T08:21:54.595Z,11.32
2022-12-28T08:24:21.696Z,12.70
2022-12-28T08:26:49.106Z,9.20
2022-12-28T08:29:17.396Z,11.23
2022-12-28T08:31:44.679Z,11.50
2022-12-28T08:34:13.111Z,10.70
2022-12-28T08:36:40.277Z,12.25
2022-12-28T08:39:07.609Z,11.32
2022-12-28T08:41:34.707Z,16.23
2022-12-28T08:44:01.816Z,9.40
2022-12-28T08:46:29.770Z,9.27
2022-12-28T08:48:57.300Z,8.10
2022-12-28T08:51:25.994Z,12.63
2022-12-28T08:53:53.206Z,11.65
2022-12-28T08:56:21.396Z,9.73
2022-12-28T08:58:48.476Z,9.35
2022-12-28T09:01:19.926Z,9.60
2022-12-28T15:23:24.967Z,3.08
2022-12-28T15:25:52.052Z,4.57
2022-12-28T15:28:19.134Z,5.15
2022-12-28T15:30:46.291Z,6.18
2022-12-28T15:33:13.370Z,5.78
2022-12-28T15:35:40.437Z,11.40
2022-12-28T15:38:07.481Z,4.20
2022-12-28T15:40:34.556Z,3.90
2022-12-28T15:43:01.607Z,4.78
2022-12-28T15:45:28.727Z,7.13
2022-12-28T15:47:55.819Z,8.48
2022-12-28T15:50:22.896Z,5.03
2022-12-28T15:52:49.985Z,4.75
2022-12-28T15:55:17.624Z,8.43
2022-12-28T15:57:44.986Z,6.95
2022-12-28T16:00:13.320Z,4.93
2022-12-28T16:02:40.619Z,6.55
2022-12-28T16:05:08.065Z,6.38
2022-12-28T16:07:35.164Z,6.25
2022-12-28T16:10:02.275Z,7.53
2022-12-28T16:12:29.363Z,5.55
2022-12-28T16:14:56.464Z,7.47
2022-12-28T16:17:23.545Z,8.38
2022-12-28T16:19:50.677Z,6.05
2022-12-28T16:22:17.745Z,5.57
2022-12-28T16:24:44.788Z,5.97
2022-12-28T16:27:12.046Z,7.88
2022-12-28T16:29:39.205Z,7.40
2022-12-28T16:32:06.447Z,6.20
2022-12-28T16:34:33.491Z,10.73
2022-12-28T16:37:00.597Z,9.82
2022-12-28T16:39:28.661Z,8.30
2022-12-28T16:41:55.840Z,4.18
2022-12-28T16:44:23.812Z,5.85
2022-12-28T16:46:50.924Z,8.07
2022-12-28T16:49:18.106Z,10.05
2022-12-28T16:51:45.550Z,5.90
2022-12-28T16:54:19.428Z,7.18
2022-12-28T16:56:46.672Z,9.05
2022-12-28T16:59:14.780Z,13.55
